Time;durP1;ratioP1;P1;durP2;ratioP2;P2;SDS_P1;SDS_P2;PMS_P1;PMS_P2;Temp;Humidity;BMP_temperature;BMP_pressure;BME280_temperature;BME280_humidity;BME280_pressure;Samples;Min_cycle;Max_cycle;Signal;HPM_P1;HPM_P2
2022/12/07 00:01:09;;;;;;;28.20;17.77;;;;;;;;;;4997219;28;20050;-65
2022/12/07 00:03:36;;;;;;;29.05;17.83;;;;;;;;;;5005411;28;20053;-65
2022/12/07 00:06:04;;;;;;;29.75;18.48;;;;;;;;;;5002824;28;20501;-65
2022/12/07 00:08:31;;;;;;;28.40;17.27;;;;;;;;;;4995210;28;20150;-65
2022/12/07 00:11:21;;;;;;;27.58;18.13;;;;;;;;;;4999538;28;20512;-65
2022/12/07 00:13:51;;;;;;;28.15;18.50;;;;;;;;;;4990540;28;20046;-64
2022/12/07 00:16:19;;;;;;;27.60;18.08;;;;;;;;;;4998479;28;20500;-63
2022/12/07 00:18:45;;;;;;;30.63;18.98;;;;;;;;;;5000710;28;20049;-63
2022/12/07 00:21:13;;;;;;;29.45;18.27;;;;;;;;;;4981990;28;20059;-67
2022/12/07 00:23:40;;;;;;;27.13;18.15;;;;;;;;;;4975611;28;20406;-64
2022/12/07 00:26:11;;;;;;;30.70;18.02;;;;;;;;;;4995130;28;20493;-64
2022/12/07 00:28:38;;;;;;;34.22;18.00;;;;;;;;;;4981633;28;20147;-64
2022/12/07 00:31:06;;;;;;;24.63;17.45;;;;;;;;;;4999553;28;20159;-63
2022/12/07 00:33:33;;;;;;;26.50;17.20;;;;;;;;;;5001994;28;20654;-63
2022/12/07 00:36:01;;;;;;;25.73;17.52;;;;;;;;;;5002709;28;20053;-66
2022/12/07 00:38:32;;;;;;;25.13;17.63;;;;;;;;;;4983694;28;20358;-67
2022/12/07 00:41:04;;;;;;;29.38;17.60;;;;;;;;;;4995163;28;20149;-65
2022/12/07 00:43:30;;;;;;;24.92;16.48;;;;;;;;;;4994970;28;20857;-64
2022/12/07 00:45:57;;;;;;;28.13;17.00;;;;;;;;;;4996999;28;20072;-67
2022/12/07 00:48:23;;;;;;;25.48;17.42;;;;;;;;;;4994015;28;20473;-66
2022/12/07 00:50:50;;;;;;;26.63;17.63;;;;;;;;;;4995452;28;20069;-66
2022/12/07 00:53:16;;;;;;;26.42;17.75;;;;;;;;;;4982422;28;20567;-67
2022/12/07 00:55:42;;;;;;;23.13;16.77;;;;;;;;;;5004087;28;20054;-65
2022/12/07 00:58:08;;;;;;;28.55;17.70;;;;;;;;;;5001354;28;20046;-65
2022/12/07 01:00:39;;;;;;;31.05;17.35;;;;;;;;;;4996155;28;20049;-65
2022/12/07 01:03:07;;;;;;;29.10;18.27;;;;;;;;;;4998504;28;20050;-62
2022/12/07 01:05:33;;;;;;;29.45;17.08;;;;;;;;;;5000364;28;20046;-63
2022/12/07 01:07:59;;;;;;;27.08;18.40;;;;;;;;;;4992387;28;20061;-65
2022/12/07 01:10:25;;;;;;;26.35;17.60;;;;;;;;;;4996908;28;20066;-64
2022/12/07 01:12:51;;;;;;;26.65;18.10;;;;;;;;;;4994945;28;20072;-64
2022/12/07 01:15:18;;;;;;;25.98;17.80;;;;;;;;;;5001025;28;20583;-63
2022/12/07 01:17:43;;;;;;;29.17;18.40;;;;;;;;;;5000276;28;20137;-64
2022/12/07 01:20:10;;;;;;;23.75;18.10;;;;;;;;;;5003818;28;20505;-63
2022/12/07 01:22:38;;;;;;;32.00;17.40;;;;;;;;;;5001260;28;20054;-62
2022/12/07 01:25:06;;;;;;;27.25;17.77;;;;;;;;;;5005580;28;20069;-62
2022/12/07 01:27:33;;;;;;;24.75;16.85;;;;;;;;;;5005532;28;20464;-63
2022/12/07 01:30:00;;;;;;;25.52;16.65;;;;;;;;;;4999673;28;20789;-66
2022/12/07 01:32:27;;;;;;;27.48;17.70;;;;;;;;;;4996759;28;20053;-65
2022/12/07 01:35:18;;;;;;;24.70;17.17;;;;;;;;;;5005762;28;20045;-64
2022/12/07 01:37:44;;;;;;;26.33;17.65;;;;;;;;;;4998646;28;20702;-64
2022/12/07 01:40:11;;;;;;;26.48;17.17;;;;;;;;;;4999719;28;20053;-64
2022/12/07 01:42:36;;;;;;;27.35;17.52;;;;;;;;;;5001950;28;20541;-69
2022/12/07 01:45:18;;;;;;;33.22;16.60;;;;;;;;;;4982091;28;20050;-65
2022/12/07 01:47:55;;;;;;;28.23;16.40;;;;;;;;;;4999221;28;20053;-65
2022/12/07 01:50:24;;;;;;;26.67;17.50;;;;;;;;;;5002626;28;20537;-65
2022/12/07 01:52:53;;;;;;;30.10;18.45;;;;;;;;;;4997451;28;20429;-65
2022/12/07 01:55:20;;;;;;;28.08;17.20;;;;;;;;;;4999090;28;20042;-64
2022/12/07 01:57:49;;;;;;;31.20;18.48;;;;;;;;;;4996834;28;20133;-64
2022/12/07 02:00:16;;;;;;;32.38;18.55;;;;;;;;;;4993720;28;20701;-63
2022/12/07 02:03:15;;;;;;;29.23;18.80;;;;;;;;;;4999521;28;20142;-65
2022/12/07 02:05:43;;;;;;;33.40;18.92;;;;;;;;;;4998171;28;20050;-65
2022/12/07 02:08:10;;;;;;;27.70;18.63;;;;;;;;;;4979414;28;20035;-65
2022/12/07 02:10:36;;;;;;;28.42;18.05;;;;;;;;;;4994918;28;20050;-66
2022/12/07 02:13:12;;;;;;;34.15;19.50;;;;;;;;;;4998596;28;20052;-66
2022/12/07 02:16:04;;;;;;;30.90;18.75;;;;;;;;;;4999934;28;20065;-65
2022/12/07 02:18:59;;;;;;;31.45;19.05;;;;;;;;;;4941829;28;20055;-65
2022/12/07 02:21:40;;;;;;;24.67;18.13;;;;;;;;;;4942582;28;20059;-65
2022/12/07 02:24:31;;;;;;;28.13;19.48;;;;;;;;;;4941063;28;20102;-63
2022/12/07 02:27:10;;;;;;;29.05;18.77;;;;;;;;;;4936512;28;20217;-66
2022/12/07 02:30:01;;;;;;;29.33;17.52;;;;;;;;;;4934441;28;20067;-66
2022/12/07 02:32:42;;;;;;;35.10;18.27;;;;;;;;;;4935967;28;20066;-64
2022/12/07 02:35:23;;;;;;;26.85;18.48;;;;;;;;;;4939160;28;20079;-63
2022/12/07 02:37:55;;;;;;;26.90;17.48;;;;;;;;;;4940970;28;20439;-66
2022/12/07 02:40:38;;;;;;;26.15;17.13;;;;;;;;;;4940791;28;20065;-63
2022/12/07 02:43:10;;;;;;;31.30;17.75;;;;;;;;;;4937659;28;20070;-65
2022/12/07 02:45:39;;;;;;;25.13;17.13;;;;;;;;;;4936660;28;20047;-63
2022/12/07 02:48:08;;;;;;;26.50;17.88;;;;;;;;;;4939456;28;20384;-63
2022/12/07 02:50:34;;;;;;;29.02;17.55;;;;;;;;;;4941698;28;20058;-64
2022/12/07 02:53:00;;;;;;;30.40;17.85;;;;;;;;;;4939634;28;20047;-64
2022/12/07 02:55:31;;;;;;;28.42;17.48;;;;;;;;;;4972592;28;20042;-63
2022/12/07 02:58:06;;;;;;;30.50;17.88;;;;;;;;;;5003795;28;20876;-66
2022/12/07 03:00:40;;;;;;;28.48;18.60;;;;;;;;;;4985735;28;20210;-64
2022/12/07 03:03:12;;;;;;;29.92;18.65;;;;;;;;;;5003006;28;20110;-66
2022/12/07 03:05:44;;;;;;;26.52;18.38;;;;;;;;;;5001838;28;20101;-64
2022/12/07 03:08:21;;;;;;;28.08;17.77;;;;;;;;;;4998948;28;20123;-69
2022/12/07 03:10:56;;;;;;;30.80;18.10;;;;;;;;;;5000603;28;20045;-65
2022/12/07 03:13:48;;;;;;;28.10;18.38;;;;;;;;;;5002105;28;20053;-65
2022/12/07 03:16:19;;;;;;;27.67;16.70;;;;;;;;;;5005737;28;20122;-63
2022/12/07 03:18:51;;;;;;;27.67;17.83;;;;;;;;;;5006022;28;20096;-64
2022/12/07 03:21:25;;;;;;;25.27;18.10;;;;;;;;;;5000751;28;20049;-64
2022/12/07 03:23:53;;;;;;;;;;;;;;;;;;5001359;28;20069;-66
2022/12/07 03:26:21;;;;;;;24.80;16.60;;;;;;;;;;5005672;28;20391;-65
2022/12/07 03:28:55;;;;;;;26.65;18.48;;;;;;;;;;4999369;28;20054;-62
2022/12/07 03:31:30;;;;;;;29.40;19.92;;;;;;;;;;4977340;28;20097;-65
2022/12/07 03:34:01;;;;;;;29.98;19.63;;;;;;;;;;4996283;28;20053;-64
2022/12/07 03:36:46;;;;;;;35.55;20.10;;;;;;;;;;4996703;28;20046;-64
2022/12/07 03:39:27;;;;;;;;;;;;;;;;;;5001161;28;20041;-64
2022/12/07 03:41:54;;;;;;;29.52;19.42;;;;;;;;;;4997937;28;20283;-60
2022/12/07 03:44:21;;;;;;;40.50;21.30;;;;;;;;;;4991919;28;20057;-66
2022/12/07 03:47:15;;;;;;;32.42;20.10;;;;;;;;;;4994017;28;20046;-62
2022/12/07 03:49:56;;;;;;;38.90;20.00;;;;;;;;;;4999582;28;20114;-65
2022/12/07 03:52:41;;;;;;;35.95;19.83;;;;;;;;;;4995973;28;20489;-66
2022/12/07 03:55:26;;;;;;;29.08;18.92;;;;;;;;;;5000051;28;20069;-64
2022/12/07 03:57:58;;;;;;;35.83;19.83;;;;;;;;;;4993059;28;20050;-63
2022/12/07 04:00:25;;;;;;;36.20;19.90;;;;;;;;;;5001892;28;20511;-62
2022/12/07 04:02:53;;;;;;;34.90;20.90;;;;;;;;;;4998265;28;20049;-62
2022/12/07 04:05:19;;;;;;;37.35;20.58;;;;;;;;;;4996353;28;20053;-63
2022/12/07 04:07:45;;;;;;;35.50;19.25;;;;;;;;;;4999720;28;20157;-66
2022/12/07 04:10:11;;;;;;;32.35;19.85;;;;;;;;;;5002835;28;20069;-65
2022/12/07 04:12:37;;;;;;;29.60;18.92;;;;;;;;;;4999069;28;20046;-64
2022/12/07 04:15:04;;;;;;;33.65;19.02;;;;;;;;;;4999219;28;20057;-63
2022/12/07 04:17:30;;;;;;;30.88;18.60;;;;;;;;;;4999044;28;21251;-62
2022/12/07 04:19:56;;;;;;;26.85;18.15;;;;;;;;;;5002072;28;20497;-63
2022/12/07 04:22:22;;;;;;;27.05;17.23;;;;;;;;;;4995691;28;20064;-64
2022/12/07 04:24:48;;;;;;;29.38;17.58;;;;;;;;;;4999312;28;20092;-63
2022/12/07 04:27:14;;;;;;;29.27;17.30;;;;;;;;;;4996288;28;20176;-62
2022/12/07 04:29:40;;;;;;;25.48;16.52;;;;;;;;;;5000076;28;20470;-63
2022/12/07 04:32:06;;;;;;;27.65;17.38;;;;;;;;;;4992314;28;20076;-63
2022/12/07 04:34:32;;;;;;;21.85;15.07;;;;;;;;;;4999599;28;20038;-62
2022/12/07 04:36:58;;;;;;;25.73;16.45;;;;;;;;;;4982940;28;20050;-66
2022/12/07 04:39:29;;;;;;;22.42;15.32;;;;;;;;;;5001042;28;20050;-62
2022/12/07 04:41:56;;;;;;;22.58;15.95;;;;;;;;;;5001044;28;20139;-63
2022/12/07 04:44:24;;;;;;;21.30;15.48;;;;;;;;;;5000738;28;20100;-61
2022/12/07 04:46:50;;;;;;;24.90;15.20;;;;;;;;;;4999611;28;20045;-64
2022/12/07 04:49:17;;;;;;;22.50;14.77;;;;;;;;;;5002515;28;21694;-68
2022/12/07 04:51:45;;;;;;;24.70;14.75;;;;;;;;;;4998497;28;20046;-64
2022/12/07 04:54:12;;;;;;;23.88;14.88;;;;;;;;;;4999810;28;20049;-64
2022/12/07 04:56:38;;;;;;;25.10;15.15;;;;;;;;;;4995636;28;20069;-63
2022/12/07 04:59:05;;;;;;;28.10;15.02;;;;;;;;;;5000821;28;20045;-61
2022/12/07 05:01:31;;;;;;;23.90;15.05;;;;;;;;;;4995425;28;20995;-64
2022/12/07 05:03:58;;;;;;;19.38;13.63;;;;;;;;;;5001086;28;20714;-62
2022/12/07 05:06:23;;;;;;;22.80;14.20;;;;;;;;;;4997443;28;20057;-64
2022/12/07 05:08:50;;;;;;;24.85;13.50;;;;;;;;;;4994021;28;20050;-63
2022/12/07 05:14:09;;;;;;;26.85;14.02;;;;;;;;;;4994508;28;20069;-63
2022/12/07 05:16:35;;;;;;;;;;;;;;;;;;4999500;28;20559;-70
2022/12/07 05:19:01;;;;;;;18.80;13.10;;;;;;;;;;4996884;28;19930;-64
2022/12/07 05:21:27;;;;;;;21.65;13.55;;;;;;;;;;4995268;28;20050;-63
2022/12/07 05:23:53;;;;;;;19.17;13.10;;;;;;;;;;4997855;28;20050;-62
2022/12/07 05:26:18;;;;;;;17.40;12.23;;;;;;;;;;5000962;28;20045;-65
2022/12/07 05:28:44;;;;;;;17.00;12.57;;;;;;;;;;4993983;28;20041;-62
2022/12/07 05:31:10;;;;;;;20.67;11.55;;;;;;;;;;4990867;28;20049;-65
2022/12/07 05:33:37;;;;;;;21.02;11.95;;;;;;;;;;4991525;28;20069;-61
2022/12/07 05:36:05;;;;;;;16.08;11.27;;;;;;;;;;4988804;28;20115;-62
2022/12/07 05:38:32;;;;;;;16.52;10.40;;;;;;;;;;4992480;28;20068;-63
2022/12/07 05:41:02;;;;;;;17.00;11.55;;;;;;;;;;4994605;28;20045;-63
2022/12/07 05:43:29;;;;;;;16.92;11.13;;;;;;;;;;4991611;28;20045;-62
2022/12/07 05:45:55;;;;;;;16.88;10.55;;;;;;;;;;4989192;28;20050;-61
2022/12/07 05:48:21;;;;;;;20.95;11.13;;;;;;;;;;4992662;28;20055;-64
2022/12/07 05:50:48;;;;;;;19.23;10.60;;;;;;;;;;4992731;28;20479;-63
2022/12/07 05:53:14;;;;;;;17.10;10.68;;;;;;;;;;4986350;28;20054;-63
2022/12/07 05:55:40;;;;;;;15.32;10.88;;;;;;;;;;4995402;28;20069;-63
2022/12/07 06:00:50;;;;;;;18.60;11.23;;;;;;;;;;4991044;28;20684;-69
2022/12/07 06:03:16;;;;;;;15.93;10.25;;;;;;;;;;5000337;28;20054;-63
2022/12/07 06:05:42;;;;;;;18.50;11.27;;;;;;;;;;4997256;28;20053;-63
2022/12/07 06:08:08;;;;;;;24.38;12.38;;;;;;;;;;4991346;28;20119;-63
2022/12/07 06:10:34;;;;;;;18.75;11.45;;;;;;;;;;5002063;28;21091;-63
2022/12/07 06:13:00;;;;;;;18.35;11.93;;;;;;;;;;4999663;28;20470;-65
2022/12/07 06:15:26;;;;;;;22.63;12.30;;;;;;;;;;5004823;28;20381;-63
2022/12/07 06:17:52;;;;;;;19.27;11.63;;;;;;;;;;5006879;28;20054;-63
2022/12/07 06:20:17;;;;;;;17.88;12.55;;;;;;;;;;5004971;28;20054;-63
2022/12/07 06:22:44;;;;;;;19.60;12.02;;;;;;;;;;5000218;28;20064;-65
2022/12/07 06:25:10;;;;;;;18.88;11.38;;;;;;;;;;4969557;28;20041;-64
2022/12/07 06:27:36;;;;;;;22.30;11.40;;;;;;;;;;5003587;28;20045;-66
2022/12/07 06:30:06;;;;;;;17.83;11.38;;;;;;;;;;5007896;28;20049;-62
2022/12/07 06:32:33;;;;;;;20.38;11.57;;;;;;;;;;5005293;28;20171;-63
2022/12/07 06:35:00;;;;;;;21.88;11.32;;;;;;;;;;5005332;28;20076;-63
2022/12/07 06:37:26;;;;;;;20.73;11.75;;;;;;;;;;4995983;28;20196;-64
2022/12/07 06:39:51;;;;;;;21.95;11.55;;;;;;;;;;5001081;28;20145;-64
2022/12/07 06:42:17;;;;;;;19.83;12.30;;;;;;;;;;4996775;28;20057;-64
2022/12/07 06:44:43;;;;;;;19.52;11.65;;;;;;;;;;5001905;28;20472;-62
2022/12/07 06:47:09;;;;;;;21.98;12.32;;;;;;;;;;5000031;28;20053;-65
2022/12/07 06:49:35;;;;;;;15.98;10.65;;;;;;;;;;4981194;28;20088;-65
2022/12/07 06:52:01;;;;;;;19.25;10.77;;;;;;;;;;5004487;28;20073;-66
2022/12/07 06:54:30;;;;;;;15.77;10.30;;;;;;;;;;4995575;28;20080;-65
2022/12/07 06:56:56;;;;;;;18.80;10.25;;;;;;;;;;4976144;28;20086;-64
2022/12/07 06:59:22;;;;;;;21.33;10.10;;;;;;;;;;4982893;28;20038;-70
2022/12/07 07:01:48;;;;;;;16.17;10.27;;;;;;;;;;5002326;28;20057;-65
2022/12/07 07:04:14;;;;;;;16.92;10.13;;;;;;;;;;5001374;28;20480;-65
2022/12/07 07:06:40;;;;;;;16.90;10.10;;;;;;;;;;5002062;28;20057;-64
2022/12/07 07:09:06;;;;;;;15.75;9.68;;;;;;;;;;4978003;28;20049;-67
2022/12/07 07:15:02;;;;;;;18.75;10.05;;;;;;;;;;4999883;28;20048;-66
2022/12/07 07:17:28;;;;;;;16.52;9.60;;;;;;;;;;4994840;28;20123;-62
2022/12/07 07:19:54;;;;;;;20.73;9.77;;;;;;;;;;5001020;28;20042;-65
2022/12/07 07:22:20;;;;;;;15.40;9.65;;;;;;;;;;4995500;28;20084;-65
2022/12/07 07:24:45;;;;;;;15.13;9.13;;;;;;;;;;4996438;28;20081;-62
2022/12/07 07:27:11;;;;;;;25.38;10.75;;;;;;;;;;5003718;28;20042;-62
2022/12/07 07:29:37;;;;;;;19.08;9.65;;;;;;;;;;4998408;28;20575;-64
2022/12/07 07:32:04;;;;;;;15.65;9.50;;;;;;;;;;4994210;28;20064;-66
2022/12/07 07:34:30;;;;;;;17.23;9.85;;;;;;;;;;4997938;28;20054;-65
2022/12/07 07:36:56;;;;;;;20.67;9.93;;;;;;;;;;4997375;28;20050;-64
2022/12/07 07:39:22;;;;;;;17.33;9.60;;;;;;;;;;4997077;28;20047;-66
2022/12/07 07:41:49;;;;;;;17.13;9.52;;;;;;;;;;4989660;28;20077;-64
2022/12/07 07:44:15;;;;;;;17.95;9.35;;;;;;;;;;5003345;28;20062;-69
2022/12/07 07:46:41;;;;;;;22.30;9.90;;;;;;;;;;5000528;28;20052;-63
2022/12/07 07:49:10;;;;;;;19.45;9.48;;;;;;;;;;5003951;28;20205;-73
2022/12/07 07:51:36;;;;;;;17.73;9.55;;;;;;;;;;5002683;28;20569;-66
2022/12/07 07:54:02;;;;;;;17.52;9.52;;;;;;;;;;4985886;28;20099;-63
2022/12/07 07:56:28;;;;;;;42.17;10.13;;;;;;;;;;5006191;28;20049;-65
2022/12/07 07:58:54;;;;;;;17.85;9.40;;;;;;;;;;5007113;28;20045;-66
2022/12/07 08:01:20;;;;;;;16.33;8.90;;;;;;;;;;5001778;28;20497;-64
2022/12/07 08:03:46;;;;;;;23.25;9.93;;;;;;;;;;4998466;28;20042;-66
2022/12/07 08:06:13;;;;;;;16.95;9.68;;;;;;;;;;4995415;28;20084;-63
2022/12/07 08:08:38;;;;;;;19.02;9.57;;;;;;;;;;5000317;28;20041;-64
2022/12/07 08:11:06;;;;;;;18.90;10.13;;;;;;;;;;5003222;28;20065;-65
2022/12/07 08:13:31;;;;;;;16.05;9.88;;;;;;;;;;5000990;28;20381;-70
2022/12/07 08:15:58;;;;;;;22.05;10.38;;;;;;;;;;4998939;28;20050;-64
2022/12/07 08:18:24;;;;;;;23.08;9.52;;;;;;;;;;4979796;28;20049;-67
2022/12/07 08:20:50;;;;;;;18.80;10.20;;;;;;;;;;4996257;28;20049;-69
2022/12/07 08:23:15;;;;;;;18.20;9.05;;;;;;;;;;4979089;28;20057;-63
2022/12/07 08:25:41;;;;;;;18.50;9.40;;;;;;;;;;4999229;28;20753;-65
2022/12/07 08:28:08;;;;;;;19.27;9.85;;;;;;;;;;5002625;28;20089;-64
2022/12/07 08:30:34;;;;;;;16.70;10.38;;;;;;;;;;4994680;28;20050;-65
2022/12/07 08:33:00;;;;;;;22.60;10.38;;;;;;;;;;5001214;28;20112;-65
2022/12/07 08:35:26;;;;;;;18.60;10.00;;;;;;;;;;4999333;28;20049;-63
2022/12/07 08:37:52;;;;;;;22.80;9.70;;;;;;;;;;4998540;28;20123;-61
2022/12/07 08:40:18;;;;;;;24.95;11.05;;;;;;;;;;4999526;28;20046;-65
2022/12/07 08:43:24;;;;;;;20.73;10.32;;;;;;;;;;4997281;28;20072;-64
2022/12/07 08:45:59;;;;;;;19.95;11.07;;;;;;;;;;4994706;28;20059;-67
2022/12/07 08:48:26;;;;;;;24.08;10.50;;;;;;;;;;4994827;28;20046;-67
2022/12/07 08:50:52;;;;;;;18.50;9.90;;;;;;;;;;4994170;28;20291;-68
2022/12/07 08:53:17;;;;;;;25.80;10.13;;;;;;;;;;4978044;28;20066;-65
2022/12/07 08:55:46;;;;;;;19.02;10.10;;;;;;;;;;4992078;28;20850;-70
2022/12/07 08:58:12;;;;;;;16.52;9.95;;;;;;;;;;5004257;28;20073;-66
2022/12/07 09:00:38;;;;;;;20.80;9.18;;;;;;;;;;4990669;28;20050;-65
2022/12/07 09:03:04;;;;;;;14.18;8.82;;;;;;;;;;4993501;28;20050;-63
2022/12/07 09:05:31;;;;;;;21.02;9.18;;;;;;;;;;4996206;28;20091;-63
2022/12/07 09:08:00;;;;;;;27.88;9.45;;;;;;;;;;4999778;28;20045;-64
2022/12/07 09:10:28;;;;;;;18.77;8.73;;;;;;;;;;4999152;28;20053;-70
2022/12/07 09:12:54;;;;;;;16.73;8.73;;;;;;;;;;5002044;28;20046;-65
2022/12/07 09:15:20;;;;;;;18.75;7.82;;;;;;;;;;4985271;28;20053;-63
2022/12/07 09:17:46;;;;;;;18.90;8.48;;;;;;;;;;4995349;28;20278;-67
2022/12/07 09:20:12;;;;;;;23.45;9.20;;;;;;;;;;4993389;28;20061;-66
2022/12/07 09:22:38;;;;;;;17.38;10.00;;;;;;;;;;4998153;28;20076;-65
2022/12/07 09:25:05;;;;;;;15.63;8.50;;;;;;;;;;5001638;28;20482;-65
2022/12/07 09:27:31;;;;;;;17.85;8.60;;;;;;;;;;5000807;28;20056;-66
2022/12/07 09:29:57;;;;;;;14.63;8.30;;;;;;;;;;4992179;28;20046;-66
2022/12/07 09:32:24;;;;;;;18.63;8.32;;;;;;;;;;4995572;28;20057;-66
2022/12/07 09:34:50;;;;;;;14.45;8.68;;;;;;;;;;5001389;28;20049;-66
2022/12/07 09:37:16;;;;;;;17.05;8.35;;;;;;;;;;5000270;28;20145;-68
2022/12/07 09:39:42;;;;;;;17.95;8.57;;;;;;;;;;5004723;28;20049;-64
2022/12/07 09:42:10;;;;;;;20.70;8.63;;;;;;;;;;5001715;28;20057;-69
2022/12/07 09:44:39;;;;;;;15.18;8.05;;;;;;;;;;5005310;28;20049;-65
2022/12/07 09:47:05;;;;;;;18.98;8.30;;;;;;;;;;5003816;28;20054;-67
2022/12/07 09:49:32;;;;;;;18.13;7.95;;;;;;;;;;5006561;28;20038;-67
2022/12/07 09:52:17;;;;;;;13.85;7.95;;;;;;;;;;5005191;28;20054;-65
2022/12/07 09:54:47;;;;;;;15.23;7.95;;;;;;;;;;5002065;28;20050;-65
2022/12/07 10:01:05;;;;;;;21.13;8.50;;;;;;;;;;4998814;28;20652;-63
2022/12/07 10:03:31;;;;;;;14.38;7.88;;;;;;;;;;4994265;28;20084;-64
2022/12/07 10:05:57;;;;;;;26.10;8.57;;;;;;;;;;4998660;28;20054;-65
2022/12/07 10:08:25;;;;;;;24.02;8.52;;;;;;;;;;4985093;28;20046;-67
2022/12/07 10:10:55;;;;;;;22.73;9.50;;;;;;;;;;4992492;28;20502;-66
2022/12/07 10:13:33;;;;;;;19.05;9.18;;;;;;;;;;4995404;28;20053;-70
2022/12/07 10:15:59;;;;;;;19.48;10.65;;;;;;;;;;5001454;28;20718;-66
2022/12/07 10:18:37;;;;;;;23.55;11.93;;;;;;;;;;5005144;28;20042;-66
2022/12/07 10:21:23;;;;;;;27.33;11.13;;;;;;;;;;5001311;28;20046;-67
2022/12/07 10:24:17;;;;;;;25.83;12.70;;;;;;;;;;5001189;28;20053;-63
2022/12/07 10:26:46;;;;;;;25.85;13.07;;;;;;;;;;5001248;28;20080;-65
2022/12/07 10:29:47;;;;;;;22.90;12.32;;;;;;;;;;4997324;28;20049;-63
2022/12/07 10:32:16;;;;;;;25.58;14.32;;;;;;;;;;4985124;28;20078;-65
2022/12/07 10:34:42;;;;;;;24.05;13.18;;;;;;;;;;4999480;28;20813;-66
2022/12/07 10:37:17;;;;;;;27.23;12.52;;;;;;;;;;5002220;28;20056;-69
2022/12/07 10:39:52;;;;;;;26.55;14.98;;;;;;;;;;4998384;28;20097;-64
2022/12/07 10:42:25;;;;;;;31.25;15.07;;;;;;;;;;5001050;28;20053;-63
2022/12/07 10:45:17;;;;;;;25.88;14.00;;;;;;;;;;5000660;28;20072;-65
2022/12/07 10:47:55;;;;;;;22.40;13.90;;;;;;;;;;5002705;28;20068;-69
2022/12/07 10:50:56;;;;;;;27.70;13.55;;;;;;;;;;4998458;28;20054;-66
2022/12/07 10:53:52;;;;;;;24.02;14.32;;;;;;;;;;4997135;28;20046;-68
2022/12/07 10:56:34;;;;;;;24.50;14.13;;;;;;;;;;5002554;28;20148;-64
2022/12/07 10:59:15;;;;;;;26.42;13.70;;;;;;;;;;5003404;28;20069;-64
2022/12/07 11:02:00;;;;;;;28.20;14.93;;;;;;;;;;5003017;28;20064;-63
2022/12/07 11:04:29;;;;;;;28.88;16.73;;;;;;;;;;4992551;28;20053;-63
2022/12/07 11:07:06;;;;;;;24.13;15.35;;;;;;;;;;5001710;28;20064;-67
2022/12/07 11:09:43;;;;;;;24.88;15.35;;;;;;;;;;4994511;28;20068;-67
2022/12/07 11:12:10;;;;;;;22.98;15.60;;;;;;;;;;5000437;28;20100;-67
2022/12/07 11:14:51;;;;;;;29.33;14.90;;;;;;;;;;4984349;28;20046;-65
2022/12/07 11:17:35;;;;;;;29.17;16.00;;;;;;;;;;4999276;28;20045;-67
2022/12/07 11:20:06;;;;;;;22.50;15.40;;;;;;;;;;4998871;28;20155;-65
2022/12/07 11:22:57;;;;;;;23.42;15.20;;;;;;;;;;4997673;28;20049;-66
2022/12/07 11:25:37;;;;;;;23.45;15.20;;;;;;;;;;4999227;28;20497;-63
2022/12/07 11:28:22;;;;;;;26.52;16.40;;;;;;;;;;5000846;28;20628;-66
2022/12/07 11:31:12;;;;;;;23.63;15.40;;;;;;;;;;4994501;28;20152;-63
2022/12/07 11:33:41;;;;;;;22.40;15.63;;;;;;;;;;5001211;28;20061;-65
2022/12/07 11:36:49;;;;;;;27.60;15.70;;;;;;;;;;4997111;28;20077;-66
2022/12/07 11:39:18;;;;;;;25.88;15.23;;;;;;;;;;4981060;28;20057;-64
2022/12/07 11:41:47;;;;;;;27.35;15.35;;;;;;;;;;4998215;28;20050;-64
2022/12/07 11:44:31;;;;;;;32.60;16.85;;;;;;;;;;4989775;28;20513;-63
2022/12/07 11:47:40;;;;;;;24.77;15.38;;;;;;;;;;4991495;28;20054;-66
2022/12/07 11:50:34;;;;;;;30.95;15.82;;;;;;;;;;4988290;28;20533;-65
2022/12/07 11:53:13;;;;;;;26.10;15.55;;;;;;;;;;4991728;28;20896;-68
2022/12/07 11:55:51;;;;;;;28.10;15.18;;;;;;;;;;4995553;28;20124;-64
2022/12/07 11:58:28;;;;;;;26.90;16.95;;;;;;;;;;4998985;28;20057;-68
2022/12/07 12:01:17;;;;;;;26.25;16.73;;;;;;;;;;5001190;28;20076;-66
2022/12/07 12:04:10;;;;;;;26.77;17.55;;;;;;;;;;4998280;28;20053;-64
2022/12/07 12:06:38;;;;;;;27.60;16.55;;;;;;;;;;5000520;28;20136;-65
2022/12/07 12:09:33;;;;;;;24.33;17.10;;;;;;;;;;5000642;28;20501;-63
2022/12/07 12:12:12;;;;;;;26.33;15.88;;;;;;;;;;4995734;28;20506;-63
2022/12/07 12:14:38;;;;;;;25.23;16.00;;;;;;;;;;4997779;28;20149;-65
2022/12/07 12:17:04;;;;;;;24.95;16.33;;;;;;;;;;4996383;28;20045;-62
2022/12/07 12:19:59;;;;;;;22.33;15.65;;;;;;;;;;4998793;28;20049;-64
2022/12/07 12:22:37;;;;;;;25.45;16.50;;;;;;;;;;4998611;28;20050;-65
2022/12/07 12:25:06;;;;;;;29.63;16.45;;;;;;;;;;5005092;28;20058;-65
2022/12/07 12:27:39;;;;;;;35.22;16.95;;;;;;;;;;5001708;28;20100;-66
2022/12/07 12:30:24;;;;;;;25.27;16.83;;;;;;;;;;5002405;28;20404;-63
2022/12/07 12:32:51;;;;;;;28.80;16.80;;;;;;;;;;5003672;28;20057;-64
2022/12/07 12:35:43;;;;;;;27.92;17.45;;;;;;;;;;4994329;28;20501;-66
2022/12/07 12:38:24;;;;;;;26.60;15.65;;;;;;;;;;4990419;28;20390;-71
2022/12/07 12:40:50;;;;;;;27.13;15.50;;;;;;;;;;4994235;28;20045;-65
2022/12/07 12:43:43;;;;;;;27.98;15.80;;;;;;;;;;4992658;28;20437;-66
2022/12/07 12:46:33;;;;;;;21.88;15.65;;;;;;;;;;4990832;28;20589;-66
2022/12/07 12:49:17;;;;;;;23.67;14.93;;;;;;;;;;4998764;28;20056;-65
2022/12/07 12:51:48;;;;;;;22.50;15.63;;;;;;;;;;4997092;28;20081;-65
2022/12/07 12:54:19;;;;;;;23.38;14.10;;;;;;;;;;4997935;28;20497;-67
2022/12/07 12:56:57;;;;;;;24.83;13.95;;;;;;;;;;5002109;28;20081;-65
2022/12/07 12:59:29;;;;;;;21.67;14.60;;;;;;;;;;4998430;28;20045;-65
2022/12/07 13:02:33;;;;;;;25.27;14.95;;;;;;;;;;4997387;28;20053;-66
2022/12/07 13:05:18;;;;;;;22.63;14.27;;;;;;;;;;5000111;28;20576;-65
2022/12/07 13:07:47;;;;;;;20.88;14.02;;;;;;;;;;4996447;28;20060;-64
2022/12/07 13:10:31;;;;;;;31.23;15.07;;;;;;;;;;5001615;28;20442;-69
2022/12/07 13:13:22;;;;;;;24.35;14.48;;;;;;;;;;5003903;28;20045;-65
2022/12/07 13:15:48;;;;;;;20.35;13.35;;;;;;;;;;5003009;28;20045;-66
2022/12/07 13:18:29;;;;;;;22.23;14.40;;;;;;;;;;5004573;28;20104;-64
2022/12/07 13:21:01;;;;;;;24.27;13.93;;;;;;;;;;5006998;28;20053;-63
2022/12/07 13:23:30;;;;;;;23.73;13.98;;;;;;;;;;5003181;28;20049;-66
2022/12/07 13:26:08;;;;;;;24.83;15.20;;;;;;;;;;5002433;28;20046;-65
2022/12/07 13:28:43;;;;;;;25.08;14.77;;;;;;;;;;5011965;28;20057;-66
2022/12/07 13:31:15;;;;;;;23.90;15.02;;;;;;;;;;5008452;28;20080;-71
2022/12/07 13:33:45;;;;;;;26.20;15.57;;;;;;;;;;4999076;28;20102;-66
2022/12/07 13:36:31;;;;;;;30.30;14.15;;;;;;;;;;4998776;28;20503;-65
2022/12/07 13:38:59;;;;;;;23.05;13.55;;;;;;;;;;5005938;28;20037;-64
2022/12/07 13:41:28;;;;;;;19.05;12.63;;;;;;;;;;4997652;28;20108;-66
2022/12/07 13:44:05;;;;;;;18.17;12.57;;;;;;;;;;5003243;28;20752;-65
2022/12/07 13:46:44;;;;;;;23.40;12.15;;;;;;;;;;5004235;28;20128;-63
2022/12/07 13:49:22;;;;;;;18.15;10.85;;;;;;;;;;5004927;28;20058;-66
2022/12/07 13:51:49;;;;;;;16.40;10.77;;;;;;;;;;5004165;28;20050;-63
2022/12/07 13:54:15;;;;;;;20.85;12.20;;;;;;;;;;5005907;28;20128;-63
2022/12/07 13:56:41;;;;;;;22.25;11.13;;;;;;;;;;5004028;28;20097;-65
2022/12/07 13:59:17;;;;;;;20.23;10.45;;;;;;;;;;4998864;28;20421;-64
2022/12/07 14:01:47;;;;;;;20.02;12.20;;;;;;;;;;5004491;28;20060;-63
2022/12/07 14:04:35;;;;;;;13.30;10.63;;;;;;;;;;5001377;28;20074;-65
2022/12/07 14:07:19;;;;;;;17.83;10.30;;;;;;;;;;5001232;28;20083;-64
2022/12/07 14:09:58;;;;;;;14.50;10.00;;;;;;;;;;5006088;28;20137;-67
2022/12/07 14:12:26;;;;;;;18.10;9.25;;;;;;;;;;5005855;28;20068;-68
2022/12/07 14:14:54;;;;;;;18.27;10.07;;;;;;;;;;5005702;28;20753;-67
2022/12/07 14:17:23;;;;;;;18.90;9.52;;;;;;;;;;5003116;28;20095;-68
2022/12/07 14:19:57;;;;;;;14.63;8.88;;;;;;;;;;5001258;28;20050;-66
2022/12/07 14:22:23;;;;;;;;;;;;;;;;;;5001374;28;20092;-62
2022/12/07 14:24:49;;;;;;;20.88;10.25;;;;;;;;;;4986768;28;20377;-67
2022/12/07 14:27:25;;;;;;;14.75;9.18;;;;;;;;;;5004321;28;20050;-71
2022/12/07 14:29:51;;;;;;;15.43;9.90;;;;;;;;;;5008872;28;20544;-65
2022/12/07 14:32:27;;;;;;;17.10;9.50;;;;;;;;;;5003215;28;20140;-65
2022/12/07 14:34:57;;;;;;;14.52;8.43;;;;;;;;;;5004810;28;20131;-66
2022/12/07 14:37:24;;;;;;;13.43;8.45;;;;;;;;;;5009361;28;20355;-67
2022/12/07 14:39:50;;;;;;;11.48;7.78;;;;;;;;;;5007802;28;20053;-68
2022/12/07 14:42:17;;;;;;;17.33;8.25;;;;;;;;;;5000482;28;20108;-65
2022/12/07 14:44:43;;;;;;;13.60;8.40;;;;;;;;;;5002767;28;20050;-67
2022/12/07 14:47:11;;;;;;;14.60;8.65;;;;;;;;;;5003360;28;20042;-67
2022/12/07 14:49:36;;;;;;;15.35;8.68;;;;;;;;;;5004739;28;20180;-65
2022/12/07 14:52:04;;;;;;;19.00;9.25;;;;;;;;;;5003986;28;20069;-67
2022/12/07 14:54:32;;;;;;;18.25;9.13;;;;;;;;;;5000153;28;20042;-69
2022/12/07 14:56:58;;;;;;;11.85;7.72;;;;;;;;;;4997516;28;20045;-66
2022/12/07 14:59:24;;;;;;;15.55;8.10;;;;;;;;;;4998969;28;20044;-65